Lynradar: storm image Ingen tordenbyger registrert..



Vårt webkamera mer informasjon My webcam


Kamera på Foreneset mer informasjon webcam on foreneset


Lynradar mer informasjon blitzortung!


Nedbørsradar mer informasjon rain snow radar


Besøk vår andre værside:

Alternativ webside

iphone versjon

Mobil versjon

Foreneset
verstasjon



Ikke nødvendig med spesiell oppmerksomhet.    Det er ingen advarsler

Nære METAR rapporter

  
ENHD - Haugesund/Karmoy, Norway
Avstand fra stasjon: V 50km
oppdatert: 12-12-2017 16:50
For det meste skyet
For det meste skyet  
 Wind from ØSØ
Vind: ØSØ 20 km/h
Temperatur:  1°C
Wind Chill:  -4°C
Duggpunkt:  1°C
Fuktighet:  100%
Barometer:  996 hPa
Skyer:  For det meste skyet
Sikt:  10 km
Skydetaljer:  Få Skyer 183 m
Delvis Skyet 1097 m
For det meste skyet 1341 m
2017/12/12 15:50 ENHD 121550Z 11011KT 9999 FEW006 SCT036 BKN044 01/01 Q0996
ENZV - Stavanger/Sola(A, Norway
Avstand fra stasjon: SSV 58km
oppdatert: 12-12-2017 16:50
Nearby showers, Delvis skyet
Nearby showers, Delvis skyet  
 Wind from Ø
Vind: Ø 7 km/h
Temperatur:  1°C
Wind Chill:  -2°C
Duggpunkt:  0°C
Fuktighet:  93%
Barometer:  997 hPa
Summering:  Nære Byger
Skyer:  Delvis Skyet
Sikt:  10 km
Skydetaljer:  Få Skyer 610 m
Delvis Skyet 1067 m
2017/12/12 15:50 ENZV 121550Z 09004KT 9999 VCSH FEW020CB SCT035 01/M00 Q0997 TEMPO 2000 SHSN VV009
ENBR - Bergen/Flesland, Norway
Avstand fra stasjon: NNV 118km
oppdatert: 12-12-2017 16:20
For det meste skyet
For det meste skyet  
 Wind from SØ
Vind: SØ 6 km/h
Temperatur:  -1°C
Duggpunkt:  -2°C
Fuktighet:  93%
Barometer:  996 hPa
Skyer:  For det meste skyet
Sikt:  10 km
Skydetaljer:  Få Skyer 274 m
For det meste skyet 823 m
2017/12/12 15:20 ENBR 121520Z 14003KT 9999 FEW009 BKN027 M01/M02 Q0996 NOSIG RMK WIND 1200FT 13013KT
ENCN - Kristiansand/Kje, Norway
Avstand fra stasjon: SØ 169km
oppdatert: 12-12-2017 16:50
Klart
Klart  
 Wind from Ø
Vind: Ø 4 km/h
Temperatur:  -6°C
Duggpunkt:  -7°C
Fuktighet:  93%
Barometer:  998 hPa
Summering:  Klart
Sikt:  mer enn 10 km
2017/12/12 15:50 ENCN 121550Z 08002KT CAVOK M06/M07 Q0998
ENQA - Troll-A Heli, Norway
Avstand fra stasjon: NV 198km
oppdatert: 12-12-2017 16:50
For det meste skyet
For det meste skyet  
 Wind from SØ
Vind: SØ 24 km/h
Temperatur:  5°C
Wind Chill:  1°C
Duggpunkt:  1°C
Fuktighet:  76%
Barometer:  995 hPa
Skyer:  For det meste skyet
Sikt:  16 miles
Skydetaljer:  Få Skyer 457 m
For det meste skyet 975 m
2017/12/12 15:50 ENQA 121550Z AUTO 14013KT 9999NDV FEW015/// BKN032/// 05/01 Q0995 W05/S4
ENOA - Oseberg, Norway
Avstand fra stasjon: NV 224km
oppdatert: 12-12-2017 16:50
For det meste skyet
For det meste skyet  
 Wind from VNV
Vind: VNV 15 km/h
Temperatur:  5°C
Wind Chill:  2°C
Duggpunkt:  -2°C
Fuktighet:  61%
Barometer:  995 hPa
Skyer:  For det meste skyet
Sikt:  10 km
Skydetaljer:  For det meste skyet 792 m
2017/12/12 15:50 ENOA 121550Z 30008KT 9999 BKN026 05/M02 Q0995 W///S4
ENFG - Fagernes/Leirin, Norway
Avstand fra stasjon: NØ 257km
oppdatert: 22-10-2017 12:20
Ikke oppdatert
Lett yr, Dis
Lett yr, Dis  
 Wind from Ø
Vind: Ø 9 km/h
Summering:  Lett yr, Dis
Sikt:  3 km
2017/10/22 10:20 ENFG 221020Z 08005KT 3000 -DZ BR FEW/// SCT004 BKN006 00/M01 Q1013
ENSL - Sleipner A Platf, Norway
Avstand fra stasjon: VSV 264km
oppdatert: 12-12-2017 16:50
Delvis Skyet
Delvis Skyet  
 Wind from NV
Vind: NV 13 km/h
Temperatur:  6°C
Wind Chill:  3°C
Duggpunkt:  1°C
Fuktighet:  71%
Barometer:  996 hPa
Skyer:  Delvis Skyet
Sikt:  10 km
Skydetaljer:  Delvis Skyet 762 m
2017/12/12 15:50 ENSL 121550Z 31007KT 9999 SCT025 06/01 Q0996 W07/S4
ENGC - Gullfax (platfor, Norway
Avstand fra stasjon: NV 294km
oppdatert: 12-12-2017 16:50
For det meste skyet
For det meste skyet  
 Wind from V
Vind: V 19 km/h
Temperatur:  5°C
Wind Chill:  1°C
Duggpunkt:  -5°C
Fuktighet:  49%
Barometer:  994 hPa
Skyer:  For det meste skyet
Sikt:  10 km
Skydetaljer:  For det meste skyet 1372 m
2017/12/12 15:50 ENGC 121550Z 27010KT 9999 BKN045 05/M05 Q0994 W06/S4
ENGM - Oslo/Gardermoen, Norway
Avstand fra stasjon: ØNØ 294km
oppdatert: 12-12-2017 16:50
Klart
Klart  
 Wind from NNV
Vind: NNV 9 km/h
Temperatur:  -8°C
Wind Chill:  -12°C
Duggpunkt:  -12°C
Fuktighet:  73%
Barometer:  995 hPa
Summering:  Klart
Sikt:  mer enn 10 km
2017/12/12 15:50 ENGM 121550Z 34005KT 300V020 CAVOK M08/M12 Q0995 NOSIG

Script utviklet av  Saratoga-weather.org Tilrettelagt for malen av  Weerstation Leuven

Du finner vår vær info også på:


UK Metoffice

European Weather Network

WeatherCloud

Weather Underground

Utstyr vi bruker:


Værstsjon
Davis VP2

Værprogram
Weather Display

Davis VP2

Weather Display